Time,TemperatureF,DewpointF,PressureIn,WindDirection,WindDirectionDegrees,WindSpeedMPH,WindSpeedGustMPH,Humidity,HourlyPrecipIn,Conditions,Clouds,dailyrainin,SoftwareType,DateUTC
2013-04-17 00:00:00,45.0,36.9,30.23,NE,45,1.0,7.0,73,0.00,,OVC008,0.00,VWS V14.01,2013-04-17 05:00:00,
2013-04-17 01:00:00,44.7,35.9,30.23,NE,45,2.0,10.0,71,0.00,,OVC008,0.00,VWS V14.01,2013-04-17 06:00:00,
2013-04-17 02:00:00,44.6,35.1,30.23,ENE,68,2.0,9.0,69,0.00,,OVC008,0.00,VWS V14.01,2013-04-17 07:00:00,
2013-04-17 03:00:00,44.7,35.2,30.20,East,90,2.0,8.0,69,0.00,,OVC008,0.00,VWS V14.01,2013-04-17 08:00:00,
2013-04-17 04:00:00,44.1,35.7,30.15,East,90,3.0,11.0,72,0.00,,OVC008,0.00,VWS V14.01,2013-04-17 09:00:00,
2013-04-17 05:00:00,44.3,37.2,30.17,East,90,3.0,14.0,76,0.00,,OVC008,0.00,VWS V14.01,2013-04-17 10:00:00,
2013-04-17 06:00:00,44.6,39.1,30.20,East,90,4.0,15.0,81,0.01,,OVC008,0.01,VWS V14.01,2013-04-17 11:00:00,
2013-04-17 07:00:00,41.8,39.9,30.13,East,90,3.0,14.0,93,0.20,,OVC008,0.20,VWS V14.01,2013-04-17 12:00:00,
2013-04-17 08:00:00,41.1,39.2,30.11,ESE,112,6.0,28.0,93,0.22,,OVC008,0.23,VWS V14.01,2013-04-17 13:00:00,
2013-04-17 09:26:00,41.1,39.2,30.11,ESE,112,6.0,28.0,93,0.22,,OVC008,0.23,VWS V14.01,2013-04-17 14:26:00,
2013-04-17 09:27:00,40.7,38.3,30.10,ENE,65,4.0,6.0,91,0.06,,OVC008,0.26,VWS V14.01,2013-04-17 14:27:00,
2013-04-17 09:32:00,40.6,38.2,30.10,East,98,2.0,7.0,91,0.07,,OVC008,0.27,VWS V14.01,2013-04-17 14:32:00,
2013-04-17 09:37:00,40.4,38.3,30.08,East,89,0.0,8.0,92,0.09,,OVC008,0.29,VWS V14.01,2013-04-17 14:37:00,
2013-04-17 09:42:00,40.2,38.1,30.08,SE,137,1.0,8.0,92,0.11,,RA,0.31,VWS V14.01,2013-04-17 14:42:00,
2013-04-17 09:47:00,40.2,38.3,30.07,ENE,63,1.0,8.0,93,0.13,,RA,0.33,VWS V14.01,2013-04-17 14:47:00,
2013-04-17 09:52:00,40.1,38.2,30.07,ENE,59,1.0,8.0,93,0.14,,RA,0.34,VWS V14.01,2013-04-17 14:52:00,
2013-04-17 09:57:00,40.1,38.2,30.08,ENE,74,1.0,8.0,93,0.16,,RA,0.36,VWS V14.01,2013-04-17 14:57:00,
2013-04-17 10:00:00,40.1,38.2,30.09,East,99,0.0,8.0,93,0.17,,-RA,0.37,VWS V14.01,2013-04-17 15:00:00,
2013-04-17 10:02:00,40.1,38.2,30.09,East,98,3.0,5.0,93,0.00,,RA,0.37,VWS V14.01,2013-04-17 15:02:00,
2013-04-17 10:07:00,40.0,38.4,30.11,East,101,0.0,6.0,94,0.03,,RA,0.40,VWS V14.01,2013-04-17 15:07:00,
2013-04-17 10:12:00,39.9,38.3,30.12,East,101,0.0,6.0,94,0.05,,RA,0.42,VWS V14.01,2013-04-17 15:12:00,
2013-04-17 10:17:00,39.8,38.2,30.12,East,80,0.0,7.0,94,0.08,,RA,0.45,VWS V14.01,2013-04-17 15:17:00,
2013-04-17 10:22:00,39.9,38.3,30.12,ESE,106,0.0,7.0,94,0.10,,RA,0.47,VWS V14.01,2013-04-17 15:22:00,
2013-04-17 10:27:00,39.8,38.2,30.12,NE,54,0.0,7.0,94,0.13,,RA,0.50,VWS V14.01,2013-04-17 15:27:00,
2013-04-17 10:32:00,39.7,38.4,30.13,ENE,65,2.0,7.0,95,0.16,,RA,0.53,VWS V14.01,2013-04-17 15:32:00,
2013-04-17 10:37:00,39.7,38.4,30.11,East,80,2.0,7.0,95,0.19,,RA,0.56,VWS V14.01,2013-04-17 15:37:00,
2013-04-17 10:42:00,39.7,38.4,30.10,ENE,65,0.0,7.0,95,0.21,,RA,0.58,VWS V14.01,2013-04-17 15:42:00,
2013-04-17 10:47:00,39.6,38.3,30.12,ESE,113,0.0,7.0,95,0.24,,RA,0.61,VWS V14.01,2013-04-17 15:47:00,
2013-04-17 10:52:00,39.6,38.3,30.12,ESE,113,0.0,7.0,95,0.26,,RA,0.63,VWS V14.01,2013-04-17 15:52:00,
2013-04-17 10:57:00,39.6,38.6,30.13,East,92,2.0,7.0,96,0.29,,RA,0.66,VWS V14.01,2013-04-17 15:57:00,
2013-04-17 11:00:00,39.5,38.5,30.12,NE,38,1.0,7.0,96,0.31,,-RA,0.68,VWS V14.01,2013-04-17 16:00:00,
2013-04-17 11:02:00,39.5,38.5,30.12,NE,39,2.0,3.0,96,0.33,,RA,0.70,VWS V14.01,2013-04-17 16:02:00,
2013-04-17 11:07:00,39.5,38.5,30.11,NE,43,0.0,5.0,96,0.36,,RA,0.73,VWS V14.01,2013-04-17 16:07:00,
2013-04-17 11:12:00,39.5,38.5,30.11,NE,40,0.0,5.0,96,0.39,,RA,0.76,VWS V14.01,2013-04-17 16:12:00,
2013-04-17 11:17:00,39.6,38.6,30.13,NNW,335,2.0,6.0,96,0.43,,RA,0.80,VWS V14.01,2013-04-17 16:17:00,
2013-04-17 11:22:00,39.6,38.6,30.14,NNW,331,3.0,6.0,96,0.45,, +RA,0.82,VWS V14.01,2013-04-17 16:22:00,
2013-04-17 11:27:00,39.6,38.6,30.14,NW,325,3.0,6.0,96,0.47,, +RA,0.84,VWS V14.01,2013-04-17 16:27:00,
2013-04-17 11:32:00,39.6,38.6,30.14,NNW,341,0.0,6.0,96,0.49,, +RA,0.86,VWS V14.01,2013-04-17 16:32:00,
2013-04-17 11:37:00,39.7,38.7,30.15,ENE,63,0.0,6.0,96,0.50,, +RA,0.87,VWS V14.01,2013-04-17 16:37:00,
2013-04-17 11:42:00,39.6,38.6,30.15,ESE,109,0.0,6.0,96,0.51,,RA,0.88,VWS V14.01,2013-04-17 16:42:00,
2013-04-17 11:47:00,39.8,38.8,30.15,East,96,1.0,6.0,96,0.52,,RA,0.89,VWS V14.01,2013-04-17 16:47:00,
2013-04-17 11:52:00,39.7,38.7,30.14,ESE,103,1.0,6.0,96,0.54,,RA,0.91,VWS V14.01,2013-04-17 16:52:00,
2013-04-17 11:58:00,39.7,38.9,30.12,ENE,76,3.0,6.0,97,0.55,,RA,0.92,VWS V14.01,2013-04-17 16:58:00,
2013-04-17 12:00:00,39.7,38.9,30.11,ENE,61,1.0,6.0,97,0.55,,-RA,0.92,VWS V14.01,2013-04-17 17:00:00,
2013-04-17 12:03:00,39.7,38.9,30.10,East,94,0.0,5.0,97,0.25,,,0.93,VWS V14.01,2013-04-17 17:03:00,
2013-04-17 12:08:00,39.7,38.9,30.09,NE,34,4.0,10.0,97,0.26,,,0.94,VWS V14.01,2013-04-17 17:08:00,
2013-04-17 12:13:00,39.7,38.9,30.07,East,97,5.0,10.0,97,0.28,,,0.96,VWS V14.01,2013-04-17 17:13:00,
2013-04-17 12:18:00,39.6,38.8,30.01,ENE,75,4.0,14.0,97,0.29,,,0.97,VWS V14.01,2013-04-17 17:18:00,
2013-04-17 12:23:00,39.5,38.7,29.92,ENE,61,9.0,19.0,97,0.30,,RA,0.98,VWS V14.01,2013-04-17 17:23:00,
2013-04-17 12:28:00,39.3,38.5,29.90,East,98,2.0,22.0,97,0.31,,RA,0.99,VWS V14.01,2013-04-17 17:28:00,
2013-04-17 12:33:00,39.3,38.5,29.92,ENE,78,9.0,22.0,97,0.31,,RA,0.99,VWS V14.01,2013-04-17 17:33:00,
2013-04-17 12:38:00,39.3,38.5,29.92,East,94,14.0,22.0,97,0.31,,RA,0.99,VWS V14.01,2013-04-17 17:38:00,
2013-04-17 12:43:00,39.6,38.8,29.91,ESE,111,9.0,22.0,97,0.31,,,0.99,VWS V14.01,2013-04-17 17:43:00,
2013-04-17 12:48:00,39.8,39.0,29.87,ESE,107,9.0,22.0,97,0.31,,,0.99,VWS V14.01,2013-04-17 17:48:00,
2013-04-17 12:53:00,39.9,39.1,29.84,ESE,121,5.0,22.0,97,0.31,,,0.99,VWS V14.01,2013-04-17 17:53:00,
2013-04-17 12:58:00,40.0,39.2,29.81,ESE,123,4.0,23.0,97,0.31,,,0.99,VWS V14.01,2013-04-17 17:58:00,
2013-04-17 13:00:00,40.1,39.3,29.89,NE,36,4.0,23.0,97,0.31,,-RA,0.99,VWS V14.01,2013-04-17 18:00:00,
2013-04-17 13:03:00,40.3,39.5,29.89,SE,145,10.0,19.0,97,0.07,,BKN090,0.99,VWS V14.01,2013-04-17 18:03:00,
2013-04-17 13:08:00,40.5,39.7,29.88,East,82,9.0,19.0,97,0.07,,BKN090,0.99,VWS V14.01,2013-04-17 18:08:00,
2013-04-17 13:13:00,40.6,39.5,29.85,ESE,115,21.0,22.0,96,0.07,,BKN090,0.99,VWS V14.01,2013-04-17 18:13:00,
2013-04-17 13:18:00,40.7,39.7,29.83,ESE,111,15.0,28.0,96,0.07,,BKN090,0.99,VWS V14.01,2013-04-17 18:18:00,
2013-04-17 13:23:00,40.7,39.7,29.82,ESE,104,14.0,28.0,96,0.07,,BKN090,0.99,VWS V14.01,2013-04-17 18:23:00,
2013-04-17 13:28:00,40.9,39.8,29.83,ENE,75,4.0,28.0,96,0.07,,BKN090,0.99,VWS V14.01,2013-04-17 18:28:00,
2013-04-17 13:33:00,41.2,40.2,29.84,ENE,63,7.0,28.0,96,0.07,,BKN090,0.99,VWS V14.01,2013-04-17 18:33:00,
2013-04-17 13:38:00,41.4,40.1,29.85,East,100,3.0,28.0,95,0.07,,BKN090,0.99,VWS V14.01,2013-04-17 18:38:00,
2013-04-17 13:43:00,41.6,40.3,29.85,NE,37,6.0,28.0,95,0.07,,BKN090,0.99,VWS V14.01,2013-04-17 18:43:00,
2013-04-17 13:48:00,41.8,40.2,29.85,NE,44,2.0,28.0,94,0.07,,BKN090,0.99,VWS V14.01,2013-04-17 18:48:00,
2013-04-17 13:53:00,41.9,40.3,29.86,East,97,5.0,28.0,94,0.07,,BKN090,0.99,VWS V14.01,2013-04-17 18:53:00,
2013-04-17 13:58:00,42.0,40.4,29.89,NE,39,3.0,28.0,94,0.07,,BKN090,0.99,VWS V14.01,2013-04-17 18:58:00,
2013-04-17 14:00:00,42.0,40.4,29.89,ENE,69,1.0,28.0,94,0.07,,-RA,0.99,VWS V14.01,2013-04-17 19:00:00,
2013-04-17 14:03:00,42.0,40.4,29.90,ENE,59,2.0,7.0,94,0.00,,BKN010,0.99,VWS V14.01,2013-04-17 19:03:00,
2013-04-17 14:08:00,42.2,40.6,29.94,North,349,3.0,7.0,94,0.00,,BKN010,0.99,VWS V14.01,2013-04-17 19:08:00,
2013-04-17 14:13:00,42.4,40.5,30.00,SW,216,7.0,9.0,93,0.00,,BKN010,0.99,VWS V14.01,2013-04-17 19:13:00,
2013-04-17 14:18:00,42.7,41.1,29.99,SSW,209,2.0,9.0,94,0.00,,BKN010,0.99,VWS V14.01,2013-04-17 19:18:00,
2013-04-17 14:23:00,42.6,40.7,29.99,SSW,208,1.0,9.0,93,0.00,,BKN010,0.99,VWS V14.01,2013-04-17 19:23:00,
2013-04-17 14:28:00,42.6,41.0,30.02,SSW,211,4.0,9.0,94,0.00,,BKN010,0.99,VWS V14.01,2013-04-17 19:28:00,
2013-04-17 14:33:00,42.6,41.0,29.99,ESE,105,2.0,9.0,94,0.00,,BKN010,0.99,VWS V14.01,2013-04-17 19:33:00,
2013-04-17 14:38:00,42.4,40.8,29.99,SE,143,0.0,9.0,94,0.00,,BKN010,0.99,VWS V14.01,2013-04-17 19:38:00,
2013-04-17 14:43:00,42.5,40.9,29.99,SE,143,0.0,9.0,94,0.00,,BKN010,0.99,VWS V14.01,2013-04-17 19:43:00,
2013-04-17 14:48:00,42.5,40.9,29.98,East,80,5.0,9.0,94,0.00,,BKN010,0.99,VWS V14.01,2013-04-17 19:48:00,
2013-04-17 14:54:00,42.4,40.8,29.98,East,93,0.0,9.0,94,0.00,,BKN010,0.99,VWS V14.01,2013-04-17 19:54:00,
2013-04-17 14:59:00,42.4,40.8,30.00,ESE,123,0.0,9.0,94,0.00,,BKN010,0.99,VWS V14.01,2013-04-17 19:59:00,
2013-04-17 15:00:00,42.4,40.8,30.00,SSE,160,0.0,9.0,94,0.00,,-RA,0.99,VWS V14.01,2013-04-17 20:00:00,
2013-04-17 15:04:00,42.6,41.0,30.00,SSE,160,0.0,1.0,94,0.00,,OVC010,0.99,VWS V14.01,2013-04-17 20:04:00,
2013-04-17 15:09:00,42.6,41.0,29.98,SSE,160,1.0,3.0,94,0.00,,OVC010,0.99,VWS V14.01,2013-04-17 20:09:00,
2013-04-17 15:14:00,42.5,40.9,29.90,ENE,69,5.0,8.0,94,0.00,,OVC010,0.99,VWS V14.01,2013-04-17 20:14:00,
2013-04-17 15:19:00,42.3,40.7,29.83,ESE,113,7.0,13.0,94,0.00,,OVC010,0.99,VWS V14.01,2013-04-17 20:19:00,
2013-04-17 15:24:00,42.2,40.9,29.83,East,84,8.0,17.0,95,0.00,,OVC010,0.99,VWS V14.01,2013-04-17 20:24:00,
2013-04-17 15:29:00,42.2,40.9,29.83,ENE,78,7.0,17.0,95,0.00,,OVC010,0.99,VWS V14.01,2013-04-17 20:29:00,
2013-04-17 15:34:00,42.2,40.9,29.85,NNE,18,7.0,17.0,95,0.00,,OVC010,0.99,VWS V14.01,2013-04-17 20:34:00,
2013-04-17 15:39:00,42.2,40.9,29.85,NE,51,8.0,17.0,95,0.00,,OVC010,0.99,VWS V14.01,2013-04-17 20:39:00,
2013-04-17 15:44:00,42.1,40.8,29.85,ENE,57,2.0,17.0,95,0.00,,-RA,0.99,VWS V14.01,2013-04-17 20:44:00,
2013-04-17 15:49:00,42.2,40.9,29.86,NE,46,3.0,17.0,95,0.00,,-RA,0.99,VWS V14.01,2013-04-17 20:49:00,
2013-04-17 15:54:00,42.2,40.9,29.91,NE,43,1.0,17.0,95,0.00,,-RA,0.99,VWS V14.01,2013-04-17 20:54:00,
2013-04-17 15:59:00,42.3,41.0,29.92,ENE,70,1.0,17.0,95,0.00,,-RA,0.99,VWS V14.01,2013-04-17 20:59:00,
2013-04-17 16:00:00,42.3,41.0,29.92,East,86,0.0,17.0,95,0.00,,-RA,0.99,VWS V14.01,2013-04-17 21:00:00,
2013-04-17 16:04:00,42.4,41.1,29.91,ESE,113,2.0,4.0,95,0.00,,OVC008,0.99,VWS V14.01,2013-04-17 21:04:00,
2013-04-17 16:09:00,42.4,41.1,29.88,East,101,2.0,6.0,95,0.00,,OVC008,0.99,VWS V14.01,2013-04-17 21:09:00,
2013-04-17 16:14:00,42.3,41.2,29.88,SE,146,2.0,7.0,96,0.00,,OVC008,0.99,VWS V14.01,2013-04-17 21:14:00,
2013-04-17 16:19:00,42.4,41.3,29.87,NNE,13,5.0,7.0,96,0.00,,OVC008,0.99,VWS V14.01,2013-04-17 21:19:00,
2013-04-17 16:24:00,42.4,41.3,29.88,ESE,107,2.0,7.0,96,0.00,,OVC008,0.99,VWS V14.01,2013-04-17 21:24:00,
2013-04-17 16:29:00,42.3,41.2,29.88,NNE,29,1.0,7.0,96,0.01,,OVC008,1.00,VWS V14.01,2013-04-17 21:29:00,
2013-04-17 16:34:00,42.3,41.2,29.88,NE,45,2.0,7.0,96,0.01,,OVC008,1.00,VWS V14.01,2013-04-17 21:34:00,
2013-04-17 16:39:00,42.3,41.2,29.86,North,355,3.0,7.0,96,0.01,,OVC008,1.00,VWS V14.01,2013-04-17 21:39:00,
2013-04-17 16:44:00,42.4,41.3,29.85,ENE,59,5.0,10.0,96,0.01,,OVC008,1.00,VWS V14.01,2013-04-17 21:44:00,
2013-04-17 16:49:00,42.4,41.3,29.83,North,355,4.0,10.0,96,0.01,,OVC008,1.00,VWS V14.01,2013-04-17 21:49:00,
2013-04-17 16:54:00,42.4,41.3,29.83,East,100,1.0,10.0,96,0.01,,OVC008,1.00,VWS V14.01,2013-04-17 21:54:00,
2013-04-17 16:59:00,42.5,41.4,29.84,ESE,103,3.0,10.0,96,0.01,,OVC008,1.00,VWS V14.01,2013-04-17 21:59:00,
2013-04-17 17:00:00,42.6,41.5,29.84,NE,46,0.0,10.0,96,0.01,,-RA,1.00,VWS V14.01,2013-04-17 22:00:00,
2013-04-17 17:04:00,42.6,41.5,29.83,SE,125,1.0,13.0,96,0.01,,OVC008,1.00,VWS V14.01,2013-04-17 22:04:00,
2013-04-17 17:09:00,42.6,41.5,29.83,East,92,5.0,13.0,96,0.01,,OVC008,1.00,VWS V14.01,2013-04-17 22:09:00,
2013-04-17 17:14:00,42.5,41.4,29.80,East,86,6.0,13.0,96,0.01,,OVC008,1.00,VWS V14.01,2013-04-17 22:14:00,
2013-04-17 17:19:00,42.5,41.4,29.81,SE,138,5.0,13.0,96,0.01,,OVC008,1.00,VWS V14.01,2013-04-17 22:19:00,
2013-04-17 17:24:00,42.5,41.4,29.81,NE,38,5.0,13.0,96,0.01,,OVC008,1.00,VWS V14.01,2013-04-17 22:24:00,
2013-04-17 17:29:00,42.5,41.4,29.77,East,80,5.0,13.0,96,0.01,,OVC008,1.00,VWS V14.01,2013-04-17 22:29:00,
2013-04-17 17:35:00,42.5,41.4,29.78,NE,55,3.0,14.0,96,0.01,,OVC008,1.00,VWS V14.01,2013-04-17 22:35:00,
2013-04-17 17:40:00,42.6,41.5,29.78,ESE,107,4.0,15.0,96,0.01,,OVC008,1.00,VWS V14.01,2013-04-17 22:40:00,
2013-04-17 17:45:00,42.7,41.6,29.77,East,90,7.0,15.0,96,0.01,,OVC008,1.00,VWS V14.01,2013-04-17 22:45:00,
2013-04-17 17:50:00,42.7,41.6,29.78,SE,140,5.0,15.0,96,0.02,,OVC008,1.01,VWS V14.01,2013-04-17 22:50:00,
2013-04-17 17:55:00,42.7,41.6,29.80,ENE,65,7.0,15.0,96,0.02,,OVC008,1.01,VWS V14.01,2013-04-17 22:55:00,
2013-04-17 18:00:00,42.8,42.0,29.83,East,90,7.0,15.0,97,0.02,,OVC008,1.01,VWS V14.01,2013-04-17 23:00:00,
2013-04-17 18:05:00,42.9,42.1,29.81,ESE,102,3.0,8.0,97,0.01,,OVC006,1.01,VWS V14.01,2013-04-17 23:05:00,
2013-04-17 18:10:00,42.9,42.1,29.78,ENE,72,4.0,9.0,97,0.01,,OVC006,1.01,VWS V14.01,2013-04-17 23:10:00,
2013-04-17 18:15:00,42.9,42.1,29.78,East,96,1.0,13.0,97,0.01,,OVC006,1.01,VWS V14.01,2013-04-17 23:15:00,
2013-04-17 18:20:00,43.0,42.2,29.79,NNW,348,4.0,13.0,97,0.02,,OVC006,1.02,VWS V14.01,2013-04-17 23:20:00,
2013-04-17 18:25:00,43.1,42.3,29.78,ESE,118,4.0,13.0,97,0.02,,OVC006,1.02,VWS V14.01,2013-04-17 23:25:00,
2013-04-17 18:30:00,43.1,42.3,29.80,East,100,5.0,13.0,97,0.02,,OVC006,1.02,VWS V14.01,2013-04-17 23:30:00,
2013-04-17 18:35:00,43.2,42.4,29.84,NW,321,3.0,13.0,97,0.02,,OVC006,1.02,VWS V14.01,2013-04-17 23:35:00,
2013-04-17 18:40:00,43.3,42.5,29.83,North,9,3.0,13.0,97,0.02,,OVC006,1.02,VWS V14.01,2013-04-17 23:40:00,
2013-04-17 18:45:00,43.3,42.5,29.82,NE,38,4.0,13.0,97,0.02,,OVC006,1.02,VWS V14.01,2013-04-17 23:45:00,
2013-04-17 18:50:00,43.3,42.5,29.81,East,79,5.0,13.0,97,0.02,,OVC006,1.02,VWS V14.01,2013-04-17 23:50:00,
2013-04-17 18:55:00,43.3,42.5,29.83,SE,130,0.0,13.0,97,0.03,,OVC006,1.03,VWS V14.01,2013-04-17 23:55:00,
2013-04-17 19:00:00,43.3,42.5,29.82,NE,42,6.0,13.0,97,0.03,,OVC006,1.03,VWS V14.01,2013-04-18 00:00:00,
2013-04-17 19:05:00,43.2,42.4,29.76,NNE,13,4.0,9.0,97,0.04,,-RA,1.05,VWS V14.01,2013-04-18 00:05:00,
2013-04-17 19:10:00,43.2,42.4,29.77,ENE,59,5.0,13.0,97,0.05,,-RA,1.06,VWS V14.01,2013-04-18 00:10:00,
2013-04-17 19:15:00,43.2,42.4,29.77,East,95,7.0,13.0,97,0.06,,-RA,1.07,VWS V14.01,2013-04-18 00:15:00,
2013-04-17 19:20:00,43.3,42.5,29.79,East,82,2.0,13.0,97,0.06,,-RA,1.07,VWS V14.01,2013-04-18 00:20:00,
2013-04-17 19:25:00,43.4,42.6,29.84,NW,323,2.0,13.0,97,0.07,,-RA,1.08,VWS V14.01,2013-04-18 00:25:00,
2013-04-17 19:30:00,43.5,42.7,29.84,NNW,333,1.0,13.0,97,0.07,,-RA,1.08,VWS V14.01,2013-04-18 00:30:00,
2013-04-17 19:35:00,43.4,42.6,29.82,NE,46,4.0,13.0,97,0.08,,-RA,1.09,VWS V14.01,2013-04-18 00:35:00,
2013-04-17 19:40:00,43.3,42.5,29.80,ENE,57,0.0,13.0,97,0.10,,-RA,1.11,VWS V14.01,2013-04-18 00:40:00,
2013-04-17 19:45:00,43.3,42.5,29.80,ENE,58,1.0,13.0,97,0.13,,-RA,1.14,VWS V14.01,2013-04-18 00:45:00,
2013-04-17 19:50:00,43.3,42.5,29.79,NNE,15,0.0,13.0,97,0.14,,-RA,1.15,VWS V14.01,2013-04-18 00:50:00,
2013-04-17 19:55:00,43.2,42.4,29.79,NNE,31,0.0,13.0,97,0.16,,-RA,1.17,VWS V14.01,2013-04-18 00:55:00,
2013-04-17 20:00:00,43.2,42.4,29.78,NNE,29,0.0,0.0,97,0.15,,-RA,1.18,VWS V14.01,2013-04-18 01:00:00,
2013-04-17 20:05:00,43.2,42.4,29.78,NNE,33,4.0,4.0,97,0.17,,-RA,1.20,VWS V14.01,2013-04-18 01:05:00,
2013-04-17 20:10:00,43.2,42.4,29.77,East,99,2.0,4.0,97,0.19,,-RA,1.22,VWS V14.01,2013-04-18 01:10:00,
2013-04-17 20:15:00,43.2,42.4,29.78,ESE,110,3.0,5.0,97,0.21,,-RA,1.24,VWS V14.01,2013-04-18 01:15:00,
2013-04-17 20:20:00,43.1,42.3,29.78,NE,54,1.0,5.0,97,0.22,,-RA,1.25,VWS V14.01,2013-04-18 01:20:00,
2013-04-17 20:26:00,43.1,42.3,29.80,NNW,332,6.0,6.0,97,0.24,,-RA,1.27,VWS V14.01,2013-04-18 01:26:00,
2013-04-17 20:31:00,43.1,42.3,29.83,WNW,300,2.0,6.0,97,0.26,,-RA,1.29,VWS V14.01,2013-04-18 01:31:00,
2013-04-17 20:43:00,43.3,42.5,29.91,NW,305,5.0,5.0,97,0.00,,-RA,1.36,VWS V14.01,2013-04-18 01:43:00,
2013-04-17 20:48:00,43.3,42.8,29.89,NW,319,7.0,9.0,98,0.36,,-RA,1.39,VWS V14.01,2013-04-18 01:48:00,
2013-04-17 20:53:00,43.2,42.4,29.88,NNW,344,7.0,9.0,97,0.38,,-RA,1.41,VWS V14.01,2013-04-18 01:53:00,
2013-04-17 20:58:00,43.1,42.3,29.88,NNW,328,7.0,11.0,97,0.40,,-RA,1.43,VWS V14.01,2013-04-18 01:58:00,
2013-04-17 21:03:00,43.1,42.6,29.86,North,360,1.0,10.0,98,0.26,,-RA,1.44,VWS V14.01,2013-04-18 02:03:00,
2013-04-17 21:08:00,43.0,42.5,29.85,NE,49,1.0,10.0,98,0.27,,-RA,1.45,VWS V14.01,2013-04-18 02:08:00,
2013-04-17 21:13:00,42.9,42.4,29.84,East,96,0.0,10.0,98,0.27,,-RA,1.45,VWS V14.01,2013-04-18 02:13:00,
2013-04-17 21:18:00,42.9,42.4,29.85,ENE,75,0.0,10.0,98,0.28,,-RA,1.46,VWS V14.01,2013-04-18 02:18:00,
2013-04-17 21:23:00,42.9,42.4,29.84,ENE,78,2.0,10.0,98,0.29,,-RA,1.47,VWS V14.01,2013-04-18 02:23:00,
2013-04-17 21:28:00,42.9,42.4,29.83,East,93,1.0,10.0,98,0.29,,-RA,1.47,VWS V14.01,2013-04-18 02:28:00,
2013-04-17 21:33:00,42.8,42.3,29.83,East,96,2.0,10.0,98,0.30,,-RA,1.48,VWS V14.01,2013-04-18 02:33:00,
2013-04-17 21:38:00,42.8,42.3,29.84,NW,319,1.0,10.0,98,0.31,,-RA,1.49,VWS V14.01,2013-04-18 02:38:00,
2013-04-17 21:43:00,42.8,42.3,29.84,ENE,69,1.0,10.0,98,0.31,,-RA,1.49,VWS V14.01,2013-04-18 02:43:00,
2013-04-17 21:48:00,42.8,42.3,29.83,NE,37,1.0,10.0,98,0.32,,-RA,1.50,VWS V14.01,2013-04-18 02:48:00,
2013-04-17 21:53:00,42.8,42.3,29.83,NE,34,1.0,10.0,98,0.33,,-RA,1.51,VWS V14.01,2013-04-18 02:53:00,
2013-04-17 21:58:00,42.8,42.3,29.83,NE,48,1.0,10.0,98,0.33,,-RA,1.51,VWS V14.01,2013-04-18 02:58:00,
2013-04-17 22:03:00,42.8,42.3,29.82,NE,55,3.0,5.0,98,0.08,,-RA,1.51,VWS V14.01,2013-04-18 03:03:00,
2013-04-17 22:08:00,42.8,42.3,29.82,ENE,73,1.0,5.0,98,0.09,,-RA,1.52,VWS V14.01,2013-04-18 03:08:00,
2013-04-17 22:13:00,42.8,42.3,29.84,East,96,1.0,5.0,98,0.10,,-RA,1.53,VWS V14.01,2013-04-18 03:13:00,
2013-04-17 22:18:00,42.8,42.3,29.82,East,89,3.0,5.0,98,0.12,,-RA,1.55,VWS V14.01,2013-04-18 03:18:00,
2013-04-17 22:23:00,42.8,42.3,29.79,ENE,69,5.0,7.0,98,0.13,,-RA,1.56,VWS V14.01,2013-04-18 03:23:00,
2013-04-17 22:28:00,42.7,42.2,29.78,East,91,6.0,8.0,98,0.15,,-RA,1.58,VWS V14.01,2013-04-18 03:28:00,
2013-04-17 22:33:00,42.7,42.2,29.74,East,80,7.0,9.0,98,0.16,,-RA,1.59,VWS V14.01,2013-04-18 03:33:00,
2013-04-17 22:38:00,42.6,42.1,29.72,East,85,6.0,11.0,98,0.17,,-RA,1.60,VWS V14.01,2013-04-18 03:38:00,
2013-04-17 22:43:00,42.7,42.2,29.71,ENE,66,3.0,11.0,98,0.18,,-RA,1.61,VWS V14.01,2013-04-18 03:43:00,
2013-04-17 22:48:00,42.7,42.2,29.69,SE,126,10.0,15.0,98,0.18,,-RA,1.61,VWS V14.01,2013-04-18 03:48:00,
2013-04-17 22:53:00,42.8,42.3,29.65,East,101,5.0,15.0,98,0.19,,-RA,1.62,VWS V14.01,2013-04-18 03:53:00,
2013-04-17 22:59:00,42.9,42.4,29.59,ESE,104,14.0,18.0,98,0.19,,-RA,1.62,VWS V14.01,2013-04-18 03:59:00,
2013-04-17 23:01:00,43.0,42.5,29.58,East,98,6.0,13.0,98,0.11,,-RA,1.62,VWS V14.01,2013-04-18 04:01:00,
2013-04-17 23:02:00,43.1,42.6,29.59,SSE,150,7.0,14.0,98,0.11,,-RA,1.62,VWS V14.01,2013-04-18 04:02:00,
2013-04-17 23:07:00,43.4,42.9,29.57,East,99,9.0,16.0,98,0.11,,-RA,1.62,VWS V14.01,2013-04-18 04:07:00,
2013-04-17 23:12:00,43.8,43.3,29.58,ESE,115,15.0,20.0,98,0.11,,-RA,1.62,VWS V14.01,2013-04-18 04:12:00,
2013-04-17 23:17:00,44.3,43.8,29.61,ESE,102,12.0,20.0,98,0.11,,-RA,1.62,VWS V14.01,2013-04-18 04:17:00,
2013-04-17 23:22:00,44.6,44.1,29.61,East,99,3.0,20.0,98,0.11,,-RA,1.62,VWS V14.01,2013-04-18 04:22:00,
2013-04-17 23:27:00,44.9,44.4,29.60,East,85,18.0,20.0,98,0.11,,-RA,1.62,VWS V14.01,2013-04-18 04:27:00,
2013-04-17 23:32:00,45.3,44.8,29.61,ENE,57,9.0,20.0,98,0.11,,-RA,1.62,VWS V14.01,2013-04-18 04:32:00,
2013-04-17 23:37:00,45.5,45.0,29.62,ESE,111,10.0,20.0,98,0.11,,-RA,1.62,VWS V14.01,2013-04-18 04:37:00,
2013-04-17 23:42:00,45.7,45.2,29.63,ESE,119,0.0,20.0,98,0.11,,-RA,1.62,VWS V14.01,2013-04-18 04:42:00,
2013-04-17 23:47:00,45.9,45.4,29.66,NW,314,8.0,20.0,98,0.11,,-RA,1.62,VWS V14.01,2013-04-18 04:47:00,
2013-04-17 23:52:00,45.9,45.4,29.66,West,279,3.0,20.0,98,0.11,,-RA,1.62,VWS V14.01,2013-04-18 04:52:00,
2013-04-17 23:57:00,45.6,45.1,29.66,North,5,3.0,20.0,98,0.11,,-RA,1.62,VWS V14.01,2013-04-18 04:57:00,